createdAt,value
2018-08-06T00:01:02.000Z,36.4
2018-08-06T00:03:02.000Z,36.3
2018-08-06T00:05:02.000Z,36.2
2018-08-06T00:07:02.000Z,36.2
2018-08-06T00:09:02.000Z,36.1
2018-08-06T00:11:02.000Z,36
2018-08-06T00:12:02.000Z,36
2018-08-06T00:13:02.000Z,36
2018-08-06T00:15:02.000Z,36.1
2018-08-06T00:16:02.000Z,36.1
2018-08-06T00:17:02.000Z,36.2
2018-08-06T00:19:02.000Z,36.2
2018-08-06T00:21:02.000Z,36.2
2018-08-06T00:23:02.000Z,36.2
2018-08-06T00:24:02.000Z,36.2
2018-08-06T00:25:02.000Z,36.2
2018-08-06T00:26:02.000Z,36.2
2018-08-06T00:28:02.000Z,36.3
2018-08-06T00:29:02.000Z,36.3
2018-08-06T00:31:02.000Z,36.3
2018-08-06T00:33:02.000Z,36.2
2018-08-06T00:35:02.000Z,36.2
2018-08-06T00:36:02.000Z,36.2
2018-08-06T00:38:02.000Z,36.2
2018-08-06T00:39:02.000Z,36.2
2018-08-06T00:41:02.000Z,36.3
2018-08-06T00:43:02.000Z,36.2
2018-08-06T00:45:02.000Z,36.1
2018-08-06T00:47:02.000Z,36.1
2018-08-06T00:48:02.000Z,36.1
2018-08-06T00:49:47.000Z,36.2
2018-08-06T00:51:02.000Z,36.2
2018-08-06T00:53:02.000Z,36.2
2018-08-06T00:54:02.000Z,36.2
2018-08-06T00:56:02.000Z,36.2
2018-08-06T00:58:02.000Z,36.1
2018-08-06T01:00:02.000Z,36.1
2018-08-06T01:02:02.000Z,36
2018-08-06T01:04:02.000Z,35.9
2018-08-06T01:05:02.000Z,35.9
2018-08-06T01:07:02.000Z,36
2018-08-06T01:08:02.000Z,36
2018-08-06T01:09:02.000Z,36.1
2018-08-06T01:11:02.000Z,36.2
2018-08-06T01:12:02.000Z,36.2
2018-08-06T01:13:02.000Z,36.2
2018-08-06T01:15:02.000Z,36.3
2018-08-06T01:16:02.000Z,36.3
2018-08-06T01:18:02.000Z,36.3
2018-08-06T01:19:02.000Z,36.3
2018-08-06T01:20:02.000Z,36.3
2018-08-06T01:22:02.000Z,36.4
2018-08-06T01:23:02.000Z,36.4
2018-08-06T01:24:47.000Z,36.3
2018-08-06T01:26:02.000Z,36.3
2018-08-06T01:28:02.000Z,36.2
2018-08-06T01:30:02.000Z,36.2
2018-08-06T01:31:02.000Z,36.2
2018-08-06T01:32:47.000Z,36.2
2018-08-06T01:34:02.000Z,36.1
2018-08-06T01:36:02.000Z,36.1
2018-08-06T01:38:02.000Z,36
2018-08-06T01:40:02.000Z,35.9
2018-08-06T01:41:02.000Z,35.9
2018-08-06T01:43:02.000Z,36
2018-08-06T01:44:02.000Z,36
2018-08-06T01:45:02.000Z,36
2018-08-06T01:47:02.000Z,36
2018-08-06T01:49:02.000Z,36
2018-08-06T01:51:02.000Z,36
2018-08-06T01:53:02.000Z,36
2018-08-06T01:54:47.000Z,36
2018-08-06T01:56:02.000Z,35.9
2018-08-06T01:58:02.000Z,35.9
2018-08-06T01:59:02.000Z,35.9
2018-08-06T02:01:02.000Z,36
2018-08-06T02:02:02.000Z,36
2018-08-06T02:03:46.000Z,36
2018-08-06T02:05:02.000Z,36
2018-08-06T02:07:02.000Z,36
2018-08-06T02:08:02.000Z,36
2018-08-06T02:10:02.000Z,36
2018-08-06T02:11:02.000Z,36
2018-08-06T02:12:02.000Z,36.1
2018-08-06T02:14:02.000Z,36.1
2018-08-06T02:16:02.000Z,36
2018-08-06T02:17:02.000Z,36
2018-08-06T02:18:02.000Z,36
2018-08-06T02:19:46.000Z,36.1
2018-08-06T02:21:02.000Z,36
2018-08-06T02:22:02.000Z,36.1
2018-08-06T02:23:02.000Z,36.1
2018-08-06T02:24:02.000Z,36.1
2018-08-06T02:25:02.000Z,36.1
2018-08-06T02:27:02.000Z,36.1
2018-08-06T02:29:02.000Z,36
2018-08-06T02:31:02.000Z,35.9
2018-08-06T02:32:02.000Z,35.9
2018-08-06T02:34:02.000Z,35.8
2018-08-06T02:36:02.000Z,35.7
2018-08-06T02:37:02.000Z,35.7
2018-08-06T02:38:02.000Z,35.8
2018-08-06T02:40:02.000Z,35.8
2018-08-06T02:41:02.000Z,35.9
2018-08-06T02:43:02.000Z,35.9
2018-08-06T02:45:02.000Z,35.9
2018-08-06T02:46:46.000Z,35.9
2018-08-06T02:48:02.000Z,35.8
2018-08-06T02:49:02.000Z,35.8
2018-08-06T02:51:02.000Z,35.9
2018-08-06T02:52:02.000Z,35.9
2018-08-06T02:53:46.000Z,35.9
2018-08-06T02:55:02.000Z,35.9
2018-08-06T02:57:02.000Z,35.9
2018-08-06T02:58:02.000Z,35.9
2018-08-06T02:59:02.000Z,35.9
2018-08-06T03:01:02.000Z,36
2018-08-06T03:02:02.000Z,36
2018-08-06T03:04:02.000Z,36
2018-08-06T03:06:02.000Z,35.9
2018-08-06T03:07:02.000Z,35.9
2018-08-06T03:08:02.000Z,35.9
2018-08-06T03:10:02.000Z,35.9
2018-08-06T03:12:02.000Z,35.8
2018-08-06T03:13:02.000Z,35.8
2018-08-06T03:15:02.000Z,35.8
2018-08-06T03:16:02.000Z,35.9
2018-08-06T03:17:02.000Z,35.9
2018-08-06T03:18:02.000Z,35.9
2018-08-06T03:20:02.000Z,36
2018-08-06T03:21:02.000Z,35.9
2018-08-06T03:23:02.000Z,36
2018-08-06T03:25:02.000Z,35.9
2018-08-06T03:26:02.000Z,35.9
2018-08-06T03:28:02.000Z,35.9
2018-08-06T03:29:02.000Z,35.8
2018-08-06T03:30:02.000Z,35.9
2018-08-06T03:31:02.000Z,35.9
2018-08-06T03:32:02.000Z,35.9
2018-08-06T03:34:02.000Z,35.9
2018-08-06T03:35:02.000Z,35.9
2018-08-06T03:37:02.000Z,35.8
2018-08-06T03:39:02.000Z,35.7
2018-08-06T03:40:02.000Z,35.7
2018-08-06T03:42:02.000Z,35.8
2018-08-06T03:44:02.000Z,35.7
2018-08-06T03:45:02.000Z,35.7
2018-08-06T03:47:02.000Z,35.8
2018-08-06T03:49:02.000Z,35.8
2018-08-06T03:51:02.000Z,35.7
2018-08-06T03:52:02.000Z,35.7
2018-08-06T03:53:02.000Z,35.7
2018-08-06T03:54:47.000Z,35.8
2018-08-06T03:56:02.000Z,35.7
2018-08-06T03:58:02.000Z,35.7
2018-08-06T04:00:02.000Z,35.7
2018-08-06T04:02:02.000Z,35.7
2018-08-06T04:03:02.000Z,35.7
2018-08-06T04:04:02.000Z,35.7
2018-08-06T04:06:02.000Z,35.8
2018-08-06T04:08:02.000Z,35.8
2018-08-06T04:09:02.000Z,35.8
2018-08-06T04:11:02.000Z,35.8
2018-08-06T04:13:02.000Z,35.8
2018-08-06T04:15:02.000Z,35.7
2018-08-06T04:17:02.000Z,35.7
2018-08-06T04:18:02.000Z,35.7
2018-08-06T04:19:02.000Z,35.8
2018-08-06T04:20:02.000Z,35.8
2018-08-06T04:21:02.000Z,35.8
2018-08-06T04:22:47.000Z,35.9
2018-08-06T04:24:02.000Z,35.8
2018-08-06T04:25:02.000Z,35.8
2018-08-06T04:26:47.000Z,35.9
2018-08-06T04:28:02.000Z,35.7
2018-08-06T04:29:02.000Z,35.4
2018-08-06T04:30:02.000Z,35.1
2018-08-06T04:31:02.000Z,34.8
2018-08-06T04:33:02.000Z,34.1
2018-08-06T04:34:02.000Z,33.3
2018-08-06T04:35:47.000Z,31.9
2018-08-06T04:37:02.000Z,31.1
2018-08-06T04:39:02.000Z,30.3
2018-08-06T04:41:02.000Z,29.4
2018-08-06T04:42:02.000Z,29
2018-08-06T04:43:02.000Z,28.6
2018-08-06T04:44:47.000Z,28
2018-08-06T04:46:02.000Z,27.5
2018-08-06T04:48:02.000Z,26.7
2018-08-06T04:49:02.000Z,26.6
2018-08-06T04:50:02.000Z,26.4
2018-08-06T04:51:47.000Z,26.4
2018-08-06T04:53:02.000Z,26.2
2018-08-06T04:54:02.000Z,25.9
2018-08-06T04:55:02.000Z,25.7
2018-08-06T04:56:02.000Z,25.5
2018-08-06T04:58:02.000Z,25.2
2018-08-06T04:59:47.000Z,24.8
2018-08-06T05:01:02.000Z,24.4
2018-08-06T05:02:02.000Z,24.2
2018-08-06T05:04:02.000Z,24
2018-08-06T05:06:02.000Z,23.9
2018-08-06T05:08:02.000Z,23.8
2018-08-06T05:10:02.000Z,24
2018-08-06T05:12:02.000Z,24.2
2018-08-06T05:14:02.000Z,24.1
2018-08-06T05:16:02.000Z,24.2
2018-08-06T05:18:02.000Z,24.3
2018-08-06T05:20:02.000Z,24.4
2018-08-06T05:21:02.000Z,24.5
2018-08-06T05:22:02.000Z,24.6
2018-08-06T05:23:02.000Z,24.9
2018-08-06T05:25:02.000Z,25.1
2018-08-06T05:26:02.000Z,25.1
2018-08-06T05:28:02.000Z,25.1
2018-08-06T05:30:02.000Z,25
2018-08-06T05:31:02.000Z,25
2018-08-06T05:33:02.000Z,25
2018-08-06T05:34:02.000Z,25
2018-08-06T05:35:02.000Z,25
2018-08-06T05:37:02.000Z,25.1
2018-08-06T05:38:47.000Z,25.1
2018-08-06T05:40:02.000Z,25
2018-08-06T05:42:02.000Z,25
2018-08-06T05:43:02.000Z,25.1
2018-08-06T05:44:02.000Z,25.1
2018-08-06T05:46:02.000Z,25.2
2018-08-06T05:47:02.000Z,25.1
2018-08-06T05:49:02.000Z,25.3
2018-08-06T05:50:02.000Z,25.2
2018-08-06T05:51:02.000Z,25
2018-08-06T05:53:02.000Z,24.7
2018-08-06T05:54:02.000Z,24.6
2018-08-06T05:56:02.000Z,24.5
2018-08-06T05:57:02.000Z,24.4
2018-08-06T05:58:02.000Z,24.5
2018-08-06T06:00:02.000Z,24.4
2018-08-06T06:01:47.000Z,24.3
2018-08-06T06:03:02.000Z,24.2
2018-08-06T06:04:02.000Z,24.2
2018-08-06T06:06:02.000Z,24.3
2018-08-06T06:07:02.000Z,24.3
2018-08-06T06:08:02.000Z,24.4
2018-08-06T06:10:02.000Z,24.6
2018-08-06T06:12:02.000Z,24.6
2018-08-06T06:14:02.000Z,24.5
2018-08-06T06:15:02.000Z,24.6
2018-08-06T06:17:02.000Z,24.6
2018-08-06T06:19:02.000Z,24.6
2018-08-06T06:21:02.000Z,24.6
2018-08-06T06:23:02.000Z,24.6
2018-08-06T06:24:02.000Z,24.7
2018-08-06T06:26:02.000Z,24.8
2018-08-06T06:27:02.000Z,24.8
2018-08-06T06:29:02.000Z,24.9
2018-08-06T06:30:02.000Z,24.9
2018-08-06T06:31:02.000Z,24.9
2018-08-06T06:33:02.000Z,24.9
2018-08-06T06:35:02.000Z,25
2018-08-06T06:36:02.000Z,25
2018-08-06T06:38:02.000Z,24.9
2018-08-06T06:39:02.000Z,25
2018-08-06T06:40:02.000Z,25
2018-08-06T06:42:02.000Z,25.2
2018-08-06T06:44:02.000Z,25.2
2018-08-06T06:45:02.000Z,25.3
2018-08-06T06:47:02.000Z,25.5
2018-08-06T06:48:02.000Z,25.6
2018-08-06T06:50:02.000Z,25.6
2018-08-06T06:51:02.000Z,25.6
2018-08-06T06:52:02.000Z,25.6
2018-08-06T06:53:02.000Z,25.7
2018-08-06T06:54:02.000Z,25.8
2018-08-06T06:56:02.000Z,26.1
2018-08-06T06:58:02.000Z,26.2
2018-08-06T07:00:02.000Z,26.6
2018-08-06T07:01:02.000Z,26.8
2018-08-06T07:03:02.000Z,27.1
2018-08-06T07:04:02.000Z,27.1
2018-08-06T07:05:47.000Z,27.2
2018-08-06T07:07:02.000Z,27.3
2018-08-06T07:09:02.000Z,27.5
2018-08-06T07:10:02.000Z,27.6
2018-08-06T07:11:02.000Z,27.7
2018-08-06T07:12:02.000Z,27.8
2018-08-06T07:14:02.000Z,28
2018-08-06T07:15:02.000Z,28.1
2018-08-06T07:17:02.000Z,28.4
2018-08-06T07:19:02.000Z,28.5
2018-08-06T07:21:02.000Z,28.5
2018-08-06T07:22:02.000Z,28.6
2018-08-06T07:24:02.000Z,28.9
2018-08-06T07:26:02.000Z,28.9
2018-08-06T07:27:02.000Z,28.7
2018-08-06T07:29:02.000Z,28.6
2018-08-06T07:30:02.000Z,28.6
2018-08-06T07:32:02.000Z,28.6
2018-08-06T07:34:02.000Z,28.9
2018-08-06T07:36:02.000Z,29.1
2018-08-06T07:37:02.000Z,29.3
2018-08-06T07:38:02.000Z,29.3
2018-08-06T07:39:02.000Z,29.3
2018-08-06T07:41:02.000Z,29.1
2018-08-06T07:42:02.000Z,29.2
2018-08-06T07:43:02.000Z,29.3
2018-08-06T07:45:02.000Z,29.4
2018-08-06T07:47:02.000Z,29.4
2018-08-06T07:49:02.000Z,29.1
2018-08-06T07:50:02.000Z,29.1
2018-08-06T07:52:02.000Z,29.4
2018-08-06T07:53:02.000Z,29.5
2018-08-06T07:55:02.000Z,29.6
2018-08-06T07:57:02.000Z,29.5
2018-08-06T07:59:02.000Z,29.6
2018-08-06T08:00:02.000Z,29.8
2018-08-06T08:01:02.000Z,30
2018-08-06T08:02:47.000Z,30.4
2018-08-06T08:04:02.000Z,30.5
2018-08-06T08:05:02.000Z,30.6
2018-08-06T08:06:02.000Z,30.7
2018-08-06T08:08:02.000Z,30.8
2018-08-06T08:10:02.000Z,30.8
2018-08-06T08:12:02.000Z,30.8
2018-08-06T08:14:02.000Z,31
2018-08-06T08:16:02.000Z,31.1
2018-08-06T08:17:02.000Z,31.2
2018-08-06T08:18:47.000Z,31.4
2018-08-06T08:20:02.000Z,31.4
2018-08-06T08:21:02.000Z,31.5
2018-08-06T08:22:02.000Z,31.5
2018-08-06T08:24:02.000Z,31.5
2018-08-06T08:25:02.000Z,31.4
2018-08-06T08:26:02.000Z,31.4
2018-08-06T08:27:02.000Z,31.4
2018-08-06T08:29:02.000Z,31.5
2018-08-06T08:31:02.000Z,31.5
2018-08-06T08:32:02.000Z,31.6
2018-08-06T08:34:02.000Z,31.9
2018-08-06T08:36:02.000Z,31.7
2018-08-06T08:37:02.000Z,31.6
2018-08-06T08:38:02.000Z,31.6
2018-08-06T08:40:02.000Z,31.6
2018-08-06T08:42:02.000Z,31.6
2018-08-06T08:44:02.000Z,31.6
2018-08-06T08:45:02.000Z,31.7
2018-08-06T08:46:02.000Z,31.7
2018-08-06T08:47:02.000Z,31.8
2018-08-06T08:49:02.000Z,32
2018-08-06T08:50:02.000Z,32
2018-08-06T08:52:02.000Z,32
2018-08-06T08:54:02.000Z,32
2018-08-06T08:56:02.000Z,31.9
2018-08-06T08:57:02.000Z,32
2018-08-06T08:58:02.000Z,32.1
2018-08-06T09:00:02.000Z,32.3
2018-08-06T09:02:02.000Z,32.4
2018-08-06T09:04:02.000Z,32.5
2018-08-06T09:05:02.000Z,32.7
2018-08-06T09:07:02.000Z,32.8
2018-08-06T09:08:02.000Z,33
2018-08-06T09:09:02.000Z,33
2018-08-06T09:11:02.000Z,33
2018-08-06T09:12:02.000Z,32.9
2018-08-06T09:14:02.000Z,32.8
2018-08-06T09:15:02.000Z,32.8
2018-08-06T09:17:02.000Z,32.9
2018-08-06T09:19:02.000Z,33.1
2018-08-06T09:20:02.000Z,33.1
2018-08-06T09:21:47.000Z,33.2
2018-08-06T09:23:02.000Z,33.2
2018-08-06T09:24:02.000Z,33.1
2018-08-06T09:25:02.000Z,33.1
2018-08-06T09:27:02.000Z,32.7
2018-08-06T09:29:02.000Z,32.7
2018-08-06T09:30:02.000Z,32.8
2018-08-06T09:31:02.000Z,33
2018-08-06T09:33:02.000Z,33.2
2018-08-06T09:34:02.000Z,33.3
2018-08-06T09:35:02.000Z,33.3
2018-08-06T09:37:02.000Z,33.6
2018-08-06T09:39:02.000Z,33.6
2018-08-06T09:40:02.000Z,33.6
2018-08-06T09:42:02.000Z,33.7
2018-08-06T09:43:02.000Z,33.8
2018-08-06T09:45:02.000Z,33.9
2018-08-06T09:46:02.000Z,33.9
2018-08-06T09:47:02.000Z,33.9
2018-08-06T09:48:02.000Z,34
2018-08-06T09:50:02.000Z,34.1
2018-08-06T09:52:02.000Z,34.1
2018-08-06T09:54:02.000Z,33.9
2018-08-06T09:56:02.000Z,33.7
2018-08-06T09:58:02.000Z,33.6
2018-08-06T10:00:02.000Z,33.4
2018-08-06T10:02:02.000Z,33.3
2018-08-06T10:03:02.000Z,33.3
2018-08-06T10:04:02.000Z,33.3
2018-08-06T10:06:02.000Z,33.5
2018-08-06T10:08:02.000Z,33.7
2018-08-06T10:10:02.000Z,33.9
2018-08-06T10:12:02.000Z,33.9
2018-08-06T10:13:02.000Z,33.9
2018-08-06T10:14:02.000Z,34
2018-08-06T10:15:02.000Z,34.2
2018-08-06T10:16:02.000Z,34.1
2018-08-06T10:18:02.000Z,33.9
2018-08-06T10:19:02.000Z,33.9
2018-08-06T10:20:02.000Z,33.9
2018-08-06T10:21:02.000Z,34
2018-08-06T10:22:02.000Z,34.1
2018-08-06T10:24:02.000Z,34.1
2018-08-06T10:26:02.000Z,33.8
2018-08-06T10:27:02.000Z,34
2018-08-06T10:29:02.000Z,34.1
2018-08-06T10:30:02.000Z,34.3
2018-08-06T10:31:02.000Z,34.4
2018-08-06T10:32:02.000Z,34.5
2018-08-06T10:34:02.000Z,34.6
2018-08-06T10:36:02.000Z,34.8
2018-08-06T10:37:02.000Z,34.7
2018-08-06T10:39:02.000Z,34.7
2018-08-06T10:40:02.000Z,34.8
2018-08-06T10:42:02.000Z,34.7
2018-08-06T10:43:02.000Z,34.8
2018-08-06T10:45:02.000Z,34.9
2018-08-06T10:47:02.000Z,35.1
2018-08-06T10:48:02.000Z,35.1
2018-08-06T10:49:02.000Z,35
2018-08-06T10:51:02.000Z,35.1
2018-08-06T10:53:02.000Z,35.1
2018-08-06T10:54:02.000Z,35.2
2018-08-06T10:56:02.000Z,35.3
2018-08-06T10:57:02.000Z,35.2
2018-08-06T10:58:02.000Z,35
2018-08-06T10:59:02.000Z,34.9
2018-08-06T11:01:02.000Z,34.8
2018-08-06T11:02:02.000Z,34.7
2018-08-06T11:04:02.000Z,34.3
2018-08-06T11:05:02.000Z,34.4
2018-08-06T11:07:02.000Z,34.7
2018-08-06T11:08:02.000Z,34.9
2018-08-06T11:10:02.000Z,35.1
2018-08-06T11:11:02.000Z,35.2
2018-08-06T11:12:47.000Z,35.3
2018-08-06T11:14:02.000Z,35.4
2018-08-06T11:15:02.000Z,35.5
2018-08-06T11:17:02.000Z,35.6
2018-08-06T11:18:02.000Z,35.5
2018-08-06T11:19:02.000Z,35.4
2018-08-06T11:21:02.000Z,35.3
2018-08-06T11:23:02.000Z,35.1
2018-08-06T11:24:02.000Z,35.1
2018-08-06T11:26:02.000Z,35.2
2018-08-06T11:27:47.000Z,35.1
2018-08-06T11:29:02.000Z,34.9
2018-08-06T11:30:02.000Z,34.9
2018-08-06T11:31:03.000Z,34.9
2018-08-06T11:32:03.000Z,34.9
2018-08-06T11:33:03.000Z,34.8
2018-08-06T11:35:03.000Z,34.8
2018-08-06T11:36:03.000Z,35
2018-08-06T11:37:03.000Z,35.2
2018-08-06T11:39:03.000Z,35.5
2018-08-06T11:41:03.000Z,35.8
2018-08-06T11:44:48.000Z,34.6
2018-08-06T11:45:48.000Z,34.5
2018-08-06T11:47:48.000Z,34.4
2018-08-06T11:48:48.000Z,34.5
2018-08-06T11:49:48.000Z,34.5
2018-08-06T11:51:48.000Z,34.7
2018-08-06T11:53:48.000Z,35
2018-08-06T11:54:48.000Z,35.2
2018-08-06T11:56:48.000Z,35.4
2018-08-06T11:57:48.000Z,35.5
2018-08-06T11:58:48.000Z,35.6
2018-08-06T12:00:48.000Z,35.9
2018-08-06T12:02:33.000Z,36
2018-08-06T12:03:48.000Z,36
2018-08-06T12:05:48.000Z,35.9
2018-08-06T12:06:48.000Z,36
2018-08-06T12:08:48.000Z,36.2
2018-08-06T12:09:48.000Z,36.3
2018-08-06T12:11:48.000Z,36.2
2018-08-06T12:12:48.000Z,36.2
2018-08-06T12:13:48.000Z,36.3
2018-08-06T12:15:33.000Z,36.1
2018-08-06T12:16:48.000Z,36
2018-08-06T12:18:48.000Z,36
2018-08-06T12:20:48.000Z,36.1
2018-08-06T12:21:48.000Z,36.2
2018-08-06T12:22:48.000Z,36.3
2018-08-06T12:24:33.000Z,36.5
2018-08-06T12:25:48.000Z,36.5
2018-08-06T12:26:48.000Z,36.5
2018-08-06T12:28:48.000Z,36.3
2018-08-06T12:30:48.000Z,36
2018-08-06T12:32:48.000Z,35.6
2018-08-06T12:33:48.000Z,35.6
2018-08-06T12:35:48.000Z,35.5
2018-08-06T12:36:48.000Z,35.6
2018-08-06T12:38:48.000Z,35.9
2018-08-06T12:39:48.000Z,36.1
2018-08-06T12:40:48.000Z,36.2
2018-08-06T12:42:48.000Z,36.5
2018-08-06T12:43:48.000Z,36.5
2018-08-06T12:45:48.000Z,36.7
2018-08-06T12:46:48.000Z,36.8
2018-08-06T12:48:48.000Z,36.7
2018-08-06T12:50:48.000Z,36.6
2018-08-06T12:51:48.000Z,36.6
2018-08-06T12:52:48.000Z,36.7
2018-08-06T12:54:48.000Z,36.9
2018-08-06T12:56:48.000Z,37.2
2018-08-06T12:57:48.000Z,37.1
2018-08-06T12:59:48.000Z,37.2
2018-08-06T13:00:48.000Z,37
2018-08-06T13:02:48.000Z,37
2018-08-06T13:03:48.000Z,37
2018-08-06T13:05:48.000Z,37.2
2018-08-06T13:06:48.000Z,37.3
2018-08-06T13:07:48.000Z,37.2
2018-08-06T13:09:48.000Z,36.7
2018-08-06T13:10:48.000Z,36.7
2018-08-06T13:12:48.000Z,36.7
2018-08-06T13:14:48.000Z,36.6
2018-08-06T13:16:48.000Z,36.5
2018-08-06T13:17:48.000Z,36.6
2018-08-06T13:19:48.000Z,36.6
2018-08-06T13:20:48.000Z,36.6
2018-08-06T13:22:48.000Z,36.8
2018-08-06T13:23:48.000Z,36.9
2018-08-06T13:25:33.000Z,37.1
2018-08-06T13:26:48.000Z,37
2018-08-06T13:27:48.000Z,36.8
2018-08-06T13:29:48.000Z,36.6
2018-08-06T13:31:48.000Z,36.6
2018-08-06T13:32:48.000Z,36.6
2018-08-06T13:34:48.000Z,36.8
2018-08-06T13:36:48.000Z,37.1
2018-08-06T13:38:48.000Z,37.3
2018-08-06T13:39:48.000Z,37.4
2018-08-06T13:40:48.000Z,37.6
2018-08-06T13:42:48.000Z,37.7
2018-08-06T13:44:48.000Z,37.8
2018-08-06T13:45:48.000Z,37.8
2018-08-06T13:46:48.000Z,37.8
2018-08-06T13:48:48.000Z,37.9
2018-08-06T13:50:48.000Z,38
2018-08-06T13:51:48.000Z,38
2018-08-06T13:52:48.000Z,38
2018-08-06T13:54:48.000Z,38.1
2018-08-06T13:55:48.000Z,38.2
2018-08-06T13:57:48.000Z,38.2
2018-08-06T13:59:33.000Z,38.2
2018-08-06T14:00:48.000Z,38.2
2018-08-06T14:02:48.000Z,38.1
2018-08-06T14:03:48.000Z,38.1
2018-08-06T14:05:48.000Z,38.2
2018-08-06T14:06:48.000Z,38.2
2018-08-06T14:08:48.000Z,38.3
2018-08-06T14:10:48.000Z,38.2
2018-08-06T14:12:33.000Z,38.2
2018-08-06T14:13:48.000Z,38.2
2018-08-06T14:17:34.000Z,37.8
2018-08-06T14:19:34.000Z,37.8
2018-08-06T14:21:34.000Z,37.8
2018-08-06T14:23:34.000Z,37.9
2018-08-06T14:24:34.000Z,37.9
2018-08-06T14:26:34.000Z,38
2018-08-06T14:28:34.000Z,38.1
2018-08-06T14:29:34.000Z,38.1
2018-08-06T14:31:34.000Z,38.1
2018-08-06T14:33:34.000Z,38
2018-08-06T14:34:34.000Z,38
2018-08-06T14:36:34.000Z,38
2018-08-06T14:38:34.000Z,38
2018-08-06T14:39:34.000Z,38.1
2018-08-06T14:41:34.000Z,38.1
2018-08-06T14:42:34.000Z,38.2
2018-08-06T14:44:34.000Z,38.2
2018-08-06T14:46:34.000Z,38.2
2018-08-06T14:48:34.000Z,38.1
2018-08-06T14:49:34.000Z,38.1
2018-08-06T14:51:34.000Z,38.1
2018-08-06T14:53:34.000Z,38
2018-08-06T14:54:34.000Z,38
2018-08-06T14:56:34.000Z,38.1
2018-08-06T14:58:34.000Z,38
2018-08-06T14:59:34.000Z,38
2018-08-06T15:01:34.000Z,38
2018-08-06T15:03:34.000Z,38
2018-08-06T15:05:34.000Z,37.9
2018-08-06T15:06:34.000Z,37.8
2018-08-06T15:07:34.000Z,37.9
2018-08-06T15:09:34.000Z,37.9
2018-08-06T15:11:34.000Z,37.9
2018-08-06T15:12:34.000Z,37.9
2018-08-06T15:14:34.000Z,37.9
2018-08-06T15:15:34.000Z,37.9
2018-08-06T15:16:34.000Z,37.9
2018-08-06T15:18:34.000Z,37.9
2018-08-06T15:19:34.000Z,37.9
2018-08-06T15:21:34.000Z,37.8
2018-08-06T15:22:34.000Z,37.7
2018-08-06T15:23:34.000Z,37.7
2018-08-06T15:25:34.000Z,37.7
2018-08-06T15:27:34.000Z,37.6
2018-08-06T15:29:34.000Z,37.5
2018-08-06T15:30:34.000Z,37.5
2018-08-06T15:32:34.000Z,37.4
2018-08-06T15:34:34.000Z,37.4
2018-08-06T15:36:34.000Z,37.3
2018-08-06T15:38:34.000Z,37.2
2018-08-06T15:40:34.000Z,37.2
2018-08-06T15:42:34.000Z,37.1
2018-08-06T15:43:34.000Z,37.1
2018-08-06T15:45:34.000Z,37.2
2018-08-06T15:46:34.000Z,37.2
2018-08-06T15:48:34.000Z,37.3
2018-08-06T15:49:34.000Z,37.3
2018-08-06T15:50:34.000Z,37.3
2018-08-06T15:51:34.000Z,37.3
2018-08-06T15:53:34.000Z,37.4
2018-08-06T15:54:34.000Z,37.4
2018-08-06T15:56:34.000Z,37.4
2018-08-06T15:57:34.000Z,37.4
2018-08-06T15:59:34.000Z,37.4
2018-08-06T16:01:34.000Z,37.3
2018-08-06T16:03:34.000Z,37.3
2018-08-06T16:05:34.000Z,37.2
2018-08-06T16:07:34.000Z,37.2
2018-08-06T16:09:34.000Z,37.1
2018-08-06T16:11:19.000Z,37.1
2018-08-06T16:12:34.000Z,37.1
2018-08-06T16:13:34.000Z,37.1
2018-08-06T16:14:34.000Z,37.1
2018-08-06T16:16:34.000Z,37.1
2018-08-06T16:17:34.000Z,37.1
2018-08-06T16:19:34.000Z,37.1
2018-08-06T16:21:19.000Z,37.1
2018-08-06T16:22:34.000Z,37.1
2018-08-06T16:24:34.000Z,37
2018-08-06T16:26:34.000Z,37
2018-08-06T16:28:34.000Z,36.9
2018-08-06T16:29:34.000Z,36.9
2018-08-06T16:30:34.000Z,37
2018-08-06T16:32:34.000Z,37
2018-08-06T16:33:34.000Z,37.1
2018-08-06T16:35:34.000Z,37.1
2018-08-06T16:37:34.000Z,37
2018-08-06T16:38:34.000Z,37
2018-08-06T16:40:34.000Z,37
2018-08-06T16:42:34.000Z,37
2018-08-06T16:44:34.000Z,36.9
2018-08-06T16:46:34.000Z,36.9
2018-08-06T16:48:34.000Z,36.9
2018-08-06T16:50:34.000Z,36.9
2018-08-06T16:51:34.000Z,36.9
2018-08-06T16:53:19.000Z,37
2018-08-06T16:54:34.000Z,36.9
2018-08-06T16:56:34.000Z,36.9
2018-08-06T16:58:34.000Z,36.8
2018-08-06T16:59:34.000Z,36.8
2018-08-06T17:01:34.000Z,36.9
2018-08-06T17:02:34.000Z,36.9
2018-08-06T17:03:34.000Z,37
2018-08-06T17:05:34.000Z,37.1
2018-08-06T17:07:34.000Z,37
2018-08-06T17:08:34.000Z,37
2018-08-06T17:09:34.000Z,37
2018-08-06T17:11:34.000Z,37
2018-08-06T17:13:34.000Z,37
2018-08-06T17:14:34.000Z,37
2018-08-06T17:16:19.000Z,37
2018-08-06T17:17:34.000Z,37
2018-08-06T17:19:34.000Z,36.9
2018-08-06T17:20:34.000Z,36.9
2018-08-06T17:21:34.000Z,36.9
2018-08-06T17:23:34.000Z,37
2018-08-06T17:25:34.000Z,37
2018-08-06T17:27:34.000Z,36.9
2018-08-06T17:29:34.000Z,36.8
2018-08-06T17:31:34.000Z,36.8
2018-08-06T17:33:34.000Z,36.8
2018-08-06T17:35:19.000Z,36.8
2018-08-06T17:36:34.000Z,36.7
2018-08-06T17:37:34.000Z,36.8
2018-08-06T17:38:34.000Z,36.8
2018-08-06T17:40:34.000Z,36.9
2018-08-06T17:41:34.000Z,36.9
2018-08-06T17:43:34.000Z,36.9
2018-08-06T17:45:34.000Z,36.9
2018-08-06T17:47:34.000Z,36.8
2018-08-06T17:49:34.000Z,36.8
2018-08-06T17:51:34.000Z,36.7
2018-08-06T17:53:34.000Z,36.7
2018-08-06T17:55:34.000Z,36.6
2018-08-06T17:57:34.000Z,36.6
2018-08-06T17:59:19.000Z,36.6
2018-08-06T18:00:34.000Z,36.5
2018-08-06T18:02:34.000Z,36.6
2018-08-06T18:04:19.000Z,36.6
2018-08-06T18:05:34.000Z,36.6
2018-08-06T18:06:34.000Z,36.6
2018-08-06T18:07:34.000Z,36.7
2018-08-06T18:09:34.000Z,36.8
2018-08-06T18:11:34.000Z,36.8
2018-08-06T18:12:34.000Z,36.8
2018-08-06T18:13:34.000Z,36.8
2018-08-06T18:14:34.000Z,36.9
2018-08-06T18:15:34.000Z,36.9
2018-08-06T18:16:34.000Z,36.9
2018-08-06T18:18:34.000Z,36.9
2018-08-06T18:20:34.000Z,36.9
2018-08-06T18:21:34.000Z,36.9
2018-08-06T18:22:34.000Z,36.9
2018-08-06T18:23:34.000Z,37
2018-08-06T18:25:34.000Z,36.9
2018-08-06T18:26:34.000Z,36.9
2018-08-06T18:28:34.000Z,36.9
2018-08-06T18:30:34.000Z,36.9
2018-08-06T18:32:34.000Z,36.8
2018-08-06T18:33:34.000Z,36.8
2018-08-06T18:35:19.000Z,36.8
2018-08-06T18:36:34.000Z,36.8
2018-08-06T18:37:34.000Z,36.8
2018-08-06T18:39:34.000Z,36.8
2018-08-06T18:40:34.000Z,36.8
2018-08-06T18:41:34.000Z,36.8
2018-08-06T18:42:34.000Z,36.8
2018-08-06T18:44:34.000Z,36.9
2018-08-06T18:46:34.000Z,36.9
2018-08-06T18:48:34.000Z,36.8
2018-08-06T18:50:34.000Z,36.7
2018-08-06T18:51:34.000Z,36.7
2018-08-06T18:52:34.000Z,36.7
2018-08-06T18:54:34.000Z,36.7
2018-08-06T18:55:34.000Z,36.7
2018-08-06T18:57:19.000Z,36.7
2018-08-06T18:58:34.000Z,36.7
2018-08-06T19:00:34.000Z,36.6
2018-08-06T19:02:19.000Z,36.6
2018-08-06T19:03:34.000Z,36.6
2018-08-06T19:04:34.000Z,36.6
2018-08-06T19:05:34.000Z,36.7
2018-08-06T19:07:34.000Z,36.7
2018-08-06T19:08:34.000Z,36.7
2018-08-06T19:10:34.000Z,36.8
2018-08-06T19:12:34.000Z,36.8
2018-08-06T19:13:34.000Z,36.8
2018-08-06T19:14:34.000Z,36.8
2018-08-06T19:15:34.000Z,36.8
2018-08-06T19:16:34.000Z,36.8
2018-08-06T19:18:19.000Z,36.9
2018-08-06T19:19:34.000Z,36.8
2018-08-06T19:21:34.000Z,36.8
2018-08-06T19:23:34.000Z,36.7
2018-08-06T19:24:34.000Z,36.6
2018-08-06T19:26:34.000Z,36.6
2018-08-06T19:27:34.000Z,36.7
2018-08-06T19:28:34.000Z,36.7
2018-08-06T19:30:34.000Z,36.8
2018-08-06T19:32:19.000Z,36.7
2018-08-06T19:33:34.000Z,36.7
2018-08-06T19:35:34.000Z,36.6
2018-08-06T19:37:34.000Z,36.6
2018-08-06T19:38:34.000Z,36.6
2018-08-06T19:39:34.000Z,36.6
2018-08-06T19:41:19.000Z,36.7
2018-08-06T19:42:34.000Z,36.7
2018-08-06T19:43:34.000Z,36.7
2018-08-06T19:44:34.000Z,36.7
2018-08-06T19:45:34.000Z,36.7
2018-08-06T19:47:34.000Z,36.7
2018-08-06T19:49:34.000Z,36.6
2018-08-06T19:51:34.000Z,36.5
2018-08-06T19:52:34.000Z,36.5
2018-08-06T19:54:34.000Z,36.6
2018-08-06T19:56:34.000Z,36.5
2018-08-06T19:58:34.000Z,36.5
2018-08-06T20:00:34.000Z,36.4
2018-08-06T20:01:34.000Z,36.4
2018-08-06T20:03:19.000Z,36.5
2018-08-06T20:04:34.000Z,36.4
2018-08-06T20:05:34.000Z,36.5
2018-08-06T20:06:34.000Z,36.5
2018-08-06T20:08:34.000Z,36.5
2018-08-06T20:09:34.000Z,36.5
2018-08-06T20:11:34.000Z,36.5
2018-08-06T20:12:34.000Z,36.5
2018-08-06T20:13:34.000Z,36.6
2018-08-06T20:15:34.000Z,36.5
2018-08-06T20:16:34.000Z,36.6
2018-08-06T20:18:34.000Z,36.5
2018-08-06T20:20:34.000Z,36.5
2018-08-06T20:22:34.000Z,36.4
2018-08-06T20:23:34.000Z,36.4
2018-08-06T20:24:34.000Z,36.5
2018-08-06T20:25:34.000Z,36.5
2018-08-06T20:27:34.000Z,36.5
2018-08-06T20:28:34.000Z,36.5
2018-08-06T20:30:34.000Z,36.5
2018-08-06T20:31:34.000Z,36.5
2018-08-06T20:33:34.000Z,36.5
2018-08-06T20:35:34.000Z,36.5
2018-08-06T20:36:34.000Z,36.5
2018-08-06T20:37:34.000Z,36.5